weather.gov     
National Weather Service

Terminal Aerodrome Forecast
NWS Homepage
This page is being discontinued on March 12, 2014.
The same data is available at this site. Please update your bookmarks.
Thank you, and we apologize for the inconvenience.
Please send an email to SR-SRH.Webmaster@noaa.gov with any concerns.


Current Version
Previous Version:    01  02  03  04  05  06  07  08  09  10  11  12  13  14  15  16  17  18  19  20  21  22  23  24  
[Printable]
923
FTUS46 KOTX 301120
TAFEAT
TAF
KEAT 301120Z 3012/3112 31012KT P6SM FEW120 SCT200
     FM301800 VRB04KT P6SM BKN200
     FM310000 30015KT P6SM SCT150=




923
FTUS46 KOTX 301120
TAFEAT
TAF
KEAT 301120Z 3012/3112 31012KT P6SM FEW120 SCT200
     FM301800 VRB04KT P6SM BKN200
     FM310000 30015KT P6SM SCT150=


U.S. Dept. of Commerce
NOAA National Weather Service
1325 East West Highway
Silver Spring, MD 20910
E-mail: w-nws.webmaster@noaa.gov
Page last modified: May 16, 2007
NATIONAL WEATHER SERVICE: for Safety, for Work, for Fun - FOR LIFE